Time;durP1;ratioP1;P1;durP2;ratioP2;P2;SDS_P1;SDS_P2;PMS_P1;PMS_P2;Temp;Humidity;BMP_temperature;BMP_pressure;BME280_temperature;BME280_humidity;BME280_pressure;Samples;Min_cycle;Max_cycle;Signal;HPM_P1;HPM_P2
2024/03/04 00:00:33;;;;;;;24.93;18.30;;;6.70;99.90;;;-141.84;100.00;106441.06;5067237;28;20204;-60
2024/03/04 00:03:03;;;;;;;24.87;17.90;;;6.70;99.90;;;-141.84;100.00;107238.72;5070106;28;20292;-61
2024/03/04 00:05:34;;;;;;;24.97;18.03;;;6.70;99.90;;;-141.84;100.00;108036.56;5069030;28;20763;-61
2024/03/04 00:08:03;;;;;;;22.53;17.60;;;6.70;99.90;;;-141.84;100.00;108302.56;5069582;28;20541;-61
2024/03/04 00:10:32;;;;;;;23.37;17.73;;;6.60;99.90;;;-141.84;100.00;109100.59;5069606;28;20224;-60
2024/03/04 00:13:00;;;;;;;24.10;18.37;;;6.60;99.90;;;-141.84;100.00;109898.81;5069335;28;20243;-62
2024/03/04 00:15:28;;;;;;;23.73;18.33;;;6.50;99.90;;;-141.84;100.00;110697.16;5070159;28;20201;-61
2024/03/04 00:17:56;;;;;;;24.23;17.70;;;6.50;99.90;;;-141.84;100.00;111761.88;5070518;28;20193;-61
2024/03/04 00:20:26;;;;;;;23.77;18.87;;;6.50;99.90;;;-141.84;100.00;112294.34;5069844;28;20611;-62
2024/03/04 00:22:54;;;;;;;25.70;18.77;;;6.50;99.90;;;-141.84;100.00;112028.13;5069436;28;20259;-60
2024/03/04 00:25:23;;;;;;;25.10;18.30;;;6.50;99.90;;;-141.84;100.00;111761.88;5069172;28;20785;-61
2024/03/04 00:27:52;;;;;;;23.27;17.87;;;6.60;99.90;;;-141.84;100.00;109898.81;5069392;28;20744;-61
2024/03/04 00:30:20;;;;;;;27.40;19.23;;;6.50;99.90;;;-141.84;100.00;104314.66;5068982;28;20787;-60
2024/03/04 00:32:48;;;;;;;22.90;18.20;;;6.60;99.90;;;-141.84;100.00;101127.16;5069620;28;20289;-62
2024/03/04 00:35:17;;;;;;;25.10;18.60;;;6.70;99.90;;;-141.84;100.00;101392.69;5069372;28;20296;-61
2024/03/04 00:37:47;;;;;;;23.93;17.63;;;6.70;99.90;;;-141.84;100.00;102189.38;5068709;28;20236;-61
2024/03/04 00:40:16;;;;;;;26.73;18.53;;;6.60;99.90;;;-141.84;100.00;102720.59;5069779;28;20256;-61
2024/03/04 00:42:44;;;;;;;23.03;17.43;;;6.60;99.90;;;-141.84;100.00;101392.69;5069504;28;20726;-59
2024/03/04 00:45:13;;;;;;;24.77;18.73;;;6.60;99.90;;;-141.84;99.93;98472.84;5069696;28;20205;-61
2024/03/04 00:47:43;;;;;;;25.30;19.40;;;6.60;99.90;;;-141.84;100.00;99003.56;5069568;28;20777;-61
2024/03/04 00:50:16;;;;;;;26.30;18.87;;;6.60;99.90;;;-141.84;96.16;89725.88;5068324;28;20692;-60
2024/03/04 00:52:46;;;;;;;23.40;18.37;;;6.70;99.90;;;-141.84;90.67;71497.94;5068894;28;20228;-61
2024/03/04 00:55:14;;;;;;;26.13;17.77;;;6.80;99.90;;;-141.84;89.75;65177.19;5068931;28;20224;-60
2024/03/04 00:57:43;;;;;;;23.10;17.50;;;6.90;99.90;;;-141.84;90.46;68599.69;5064906;28;20315;-60
2024/03/04 01:00:14;;;;;;;21.77;17.00;;;6.80;99.90;;;-141.84;90.23;67809.63;5074062;28;20300;-59
2024/03/04 01:02:43;;;;;;;22.27;16.87;;;6.80;99.90;;;-141.84;91.58;70707.31;5073028;28;20213;-60
2024/03/04 01:05:12;;;;;;;23.40;16.90;;;6.80;99.90;;;-141.84;93.24;79412.97;5073166;28;20216;-61
2024/03/04 01:07:40;;;;;;;25.77;17.73;;;6.60;99.90;;;-141.84;90.28;66493.19;5038053;28;20282;-60
2024/03/04 01:10:11;;;;;;;20.67;16.23;;;6.70;99.90;;;-141.84;91.55;72552.38;5073401;28;20255;-61
2024/03/04 01:12:39;;;;;;;19.50;15.43;;;6.70;99.90;;;-141.84;92.27;74662.09;5073221;28;20220;-61
2024/03/04 01:15:09;;;;;;;19.80;15.70;;;6.60;99.90;;;-141.84;91.53;72025.13;5073102;28;20719;-60
2024/03/04 01:17:38;;;;;;;20.87;16.43;;;6.60;99.90;;;-141.84;92.98;77564.72;5036826;28;20232;-62
2024/03/04 01:20:10;;;;;;;22.90;16.60;;;6.50;99.90;;;-141.84;93.13;78620.75;5072560;28;20277;-60
2024/03/04 01:22:40;;;;;;;21.67;16.60;;;6.40;99.90;;;-141.84;93.91;80733.66;5073453;28;20542;-61
2024/03/04 01:25:10;;;;;;;20.97;16.80;;;6.40;99.90;;;-141.84;95.33;84169.50;5072126;28;20236;-61
2024/03/04 01:27:39;;;;;;;20.70;15.40;;;6.30;99.90;;;-141.84;97.44;90785.09;5072698;28;20228;-59
2024/03/04 01:30:10;;;;;;;21.23;15.77;;;6.30;99.90;;;-141.84;99.36;95289.94;5072798;28;20308;-60
2024/03/04 01:32:38;;;;;;;22.37;16.47;;;6.20;99.90;;;-141.84;100.00;100330.69;5072932;28;20231;-61
2024/03/04 01:35:10;;;;;;;22.23;17.30;;;6.10;99.90;;;-141.84;100.00;101392.69;5071762;28;20243;-62
2024/03/04 01:37:43;;;;;;;23.87;17.33;;;6.00;99.90;;;-141.84;100.00;104846.16;5064683;28;20224;-61
2024/03/04 01:40:14;;;;;;;23.53;17.20;;;6.00;99.90;;;-141.84;100.00;107770.63;5072332;28;20220;-61
2024/03/04 01:42:44;;;;;;;21.77;16.57;;;5.90;99.90;;;-141.84;100.00;110431.03;5072610;28;20228;-60
2024/03/04 01:45:24;;;;;;;21.00;15.77;;;5.80;99.90;;;-141.84;100.00;109100.59;5072697;28;20252;-62
2024/03/04 01:47:55;;;;;;;22.13;16.63;;;5.90;99.90;;;-141.84;100.00;107770.63;5072365;28;20273;-61
2024/03/04 01:50:28;;;;;;;23.77;17.00;;;5.80;99.90;;;-141.84;100.00;106972.81;5072092;28;20315;-61
2024/03/04 01:53:02;;;;;;;22.70;16.80;;;5.80;99.90;;;-141.84;100.00;109100.59;5072201;28;20220;-60
2024/03/04 01:55:38;;;;;;;21.50;16.77;;;5.80;99.90;;;-141.84;100.00;111761.88;5063453;28;20236;-61
2024/03/04 01:58:11;;;;;;;23.93;17.23;;;5.70;99.90;;;-141.84;100.00;114424.91;5072002;28;20220;-60
2024/03/04 02:00:44;;;;;;;22.83;17.60;;;5.60;99.90;;;-141.84;100.00;116823.13;5071969;28;20750;-61
2024/03/04 02:03:16;;;;;;;24.33;18.37;;;5.60;99.90;;;-141.84;100.00;117889.44;5072646;28;20668;-61
2024/03/04 02:05:47;;;;;;;24.63;17.47;;;5.60;99.90;;;-141.84;100.00;118422.72;5072184;28;20228;-60
2024/03/04 02:08:19;;;;;;;23.40;17.57;;;5.60;99.90;;;-141.84;100.00;118156.06;5071286;28;20374;-60
2024/03/04 02:10:49;;;;;;;24.03;17.10;;;5.60;99.90;;;-141.84;100.00;118422.72;5071612;28;20687;-61
2024/03/04 02:13:20;;;;;;;25.80;18.03;;;5.50;99.90;;;-141.84;100.00;117622.84;5071344;28;20739;-61
2024/03/04 02:15:50;;;;;;;24.10;18.03;;;5.50;99.90;;;-141.84;100.00;116290.06;5072301;28;20249;-61
2024/03/04 02:18:19;;;;;;;22.93;17.30;;;5.50;99.90;;;-141.84;100.00;114158.53;5071659;28;20193;-61
2024/03/04 02:20:53;;;;;;;22.13;17.50;;;5.60;99.90;;;-141.84;100.00;111495.69;5064274;28;20653;-60
2024/03/04 02:23:23;;;;;;;24.03;17.83;;;5.70;99.90;;;-141.84;100.00;111495.69;5070270;28;20224;-61
2024/03/04 02:25:54;;;;;;;23.23;17.27;;;5.40;99.90;;;-141.84;100.00;112294.34;5071272;28;20228;-61
2024/03/04 02:28:25;;;;;;;22.67;17.67;;;5.60;99.90;;;-141.84;100.00;114158.53;5071716;28;20224;-61
2024/03/04 02:30:54;;;;;;;24.67;17.43;;;5.50;99.90;;;-141.84;100.00;116290.06;5071632;28;20319;-60
2024/03/04 02:33:26;;;;;;;24.47;18.60;;;5.40;99.90;;;-141.84;100.00;115757.06;5063626;28;20208;-61
2024/03/04 02:35:54;;;;;;;21.83;17.73;;;5.50;99.90;;;-141.84;100.00;111495.69;5072886;28;20715;-61
2024/03/04 02:38:25;;;;;;;25.33;18.07;;;5.50;99.90;;;-141.84;100.00;113359.50;5071596;28;20219;-60
2024/03/04 02:40:53;;;;;;;25.93;18.47;;;5.50;99.90;;;-141.84;100.00;116023.56;5071546;28;20320;-61
2024/03/04 02:43:22;;;;;;;23.43;17.70;;;5.50;99.90;;;-141.84;100.00;116823.13;5071156;28;20251;-61
2024/03/04 02:45:50;;;;;;;24.87;18.47;;;5.50;99.90;;;-141.84;100.00;117889.44;5071113;28;20228;-61
2024/03/04 02:48:19;;;;;;;21.80;16.77;;;5.40;99.90;;;-141.84;100.00;118689.38;5071876;28;20607;-61
2024/03/04 02:50:47;;;;;;;22.90;17.20;;;5.30;99.90;;;-141.84;100.00;119224.81;5072144;28;20309;-61
2024/03/04 02:53:15;;;;;;;23.97;18.07;;;5.30;99.90;;;-141.84;100.00;119224.81;5072034;28;20267;-61
2024/03/04 02:55:46;;;;;;;24.53;17.83;;;5.30;99.90;;;-141.84;100.00;119224.81;5071723;28;20293;-61
2024/03/04 02:58:14;;;;;;;23.63;17.57;;;5.30;99.90;;;-141.84;100.00;119224.81;5071181;28;20715;-60
2024/03/04 03:00:42;;;;;;;22.67;17.43;;;5.30;99.90;;;-141.84;100.00;119224.81;5062430;28;20662;-61
2024/03/04 03:03:11;;;;;;;24.10;18.47;;;5.30;99.90;;;-141.84;100.00;119224.81;5070988;28;20714;-61
2024/03/04 03:05:39;;;;;;;26.93;18.50;;;5.20;99.90;;;-141.84;100.00;119224.81;5070998;28;20282;-62
2024/03/04 03:08:07;;;;;;;26.40;18.53;;;5.20;99.90;;;-141.84;100.00;119224.81;5071431;28;20278;-61
2024/03/04 03:10:36;;;;;;;26.37;18.80;;;5.20;99.90;;;-141.84;100.00;119224.81;5070887;28;20260;-61
2024/03/04 03:13:07;;;;;;;24.33;18.43;;;5.20;99.90;;;-141.84;100.00;119224.81;5071254;28;20228;-61
2024/03/04 03:15:35;;;;;;;28.57;18.60;;;5.30;99.90;;;-141.84;100.00;119224.81;5070976;28;20200;-61
2024/03/04 03:18:06;;;;;;;24.90;18.63;;;5.30;99.90;;;-141.84;100.00;119224.81;5071081;28;20203;-60
2024/03/04 03:20:34;;;;;;;26.23;18.60;;;5.30;99.90;;;-141.84;100.00;119224.81;5070478;28;20220;-60
2024/03/04 03:23:02;;;;;;;23.93;17.57;;;5.40;99.90;;;-141.84;100.00;119224.81;5070879;28;20220;-60
2024/03/04 03:25:31;;;;;;;28.10;20.17;;;5.30;99.90;;;-141.84;100.00;119224.81;5070408;28;20769;-61
2024/03/04 03:27:59;;;;;;;26.70;18.87;;;5.30;99.90;;;-141.84;100.00;119224.81;5070384;28;20282;-61
2024/03/04 03:30:29;;;;;;;23.70;17.90;;;5.20;99.90;;;-141.84;100.00;119224.81;5070280;28;20216;-63
2024/03/04 03:32:58;;;;;;;25.67;19.53;;;5.20;99.90;;;-141.84;100.00;119224.81;5071096;28;20192;-60
2024/03/04 03:35:26;;;;;;;23.13;17.63;;;5.10;99.90;;;-141.84;100.00;119224.81;5061575;28;20236;-60
2024/03/04 03:37:54;;;;;;;23.77;17.93;;;5.30;99.90;;;-141.84;100.00;119224.81;5067694;28;20899;-61
2024/03/04 03:40:22;;;;;;;22.87;17.63;;;5.20;99.90;;;-141.84;100.00;119224.81;5069926;28;20216;-60
2024/03/04 03:42:51;;;;;;;26.93;18.80;;;5.10;99.90;;;-141.84;100.00;119224.81;5071258;28;20303;-60
2024/03/04 03:45:19;;;;;;;23.33;18.50;;;5.20;99.90;;;-141.84;100.00;119224.81;5071412;28;20282;-60
2024/03/04 03:47:49;;;;;;;26.97;18.60;;;5.30;99.90;;;-141.84;100.00;119224.81;5071171;28;20225;-61
2024/03/04 03:50:18;;;;;;;27.73;19.93;;;5.20;99.90;;;-141.84;100.00;119224.81;5070311;28;20225;-61
2024/03/04 03:52:46;;;;;;;25.03;18.83;;;5.20;99.90;;;-141.84;100.00;119224.81;5070419;28;20294;-61
2024/03/04 03:55:14;;;;;;;23.70;18.30;;;5.10;99.90;;;-141.84;100.00;119224.81;5066525;28;20227;-61
2024/03/04 03:57:44;;;;;;;23.33;18.63;;;5.10;99.90;;;-141.84;100.00;119224.81;5069722;28;20261;-61
2024/03/04 04:00:25;;;;;;;25.77;18.73;;;5.10;99.90;;;-141.84;100.00;119224.81;5069671;28;20192;-61
2024/03/04 04:02:59;;;;;;;23.93;18.50;;;5.10;99.90;;;-141.84;100.00;119224.81;5069844;28;20628;-60
2024/03/04 04:05:28;;;;;;;25.07;18.50;;;5.10;99.90;;;-141.84;100.00;119224.81;5070321;28;20231;-61
2024/03/04 04:07:57;;;;;;;23.17;18.37;;;5.20;99.90;;;-141.84;100.00;119224.81;5069934;28;20369;-60
2024/03/04 04:10:26;;;;;;;23.23;18.57;;;5.20;99.90;;;-141.84;100.00;119224.81;5070063;28;20224;-61
2024/03/04 04:12:54;;;;;;;22.37;18.20;;;5.20;99.90;;;-141.84;100.00;119224.81;5069579;28;20307;-60
2024/03/04 04:15:23;;;;;;;22.73;17.83;;;5.10;99.90;;;-141.84;100.00;119222.75;5061192;28;20200;-61
2024/03/04 04:17:55;;;;;;;23.03;17.50;;;5.10;99.90;;;-141.84;100.00;118956.03;5070202;28;20193;-60
2024/03/04 04:20:25;;;;;;;24.27;17.93;;;5.10;99.90;;;-141.84;100.00;119222.75;5071228;28;20239;-60
2024/03/04 04:22:54;;;;;;;23.07;16.77;;;5.00;99.90;;;-141.84;100.00;119224.81;5069671;28;20977;-62
2024/03/04 04:25:22;;;;;;;23.13;17.13;;;4.90;99.90;;;-141.84;100.00;119224.81;5069840;28;20232;-61
2024/03/04 04:27:55;;;;;;;26.10;19.13;;;4.80;99.90;;;-141.84;100.00;119224.81;5068882;28;20224;-61
2024/03/04 04:30:24;;;;;;;22.97;17.83;;;4.80;99.90;;;-141.84;100.00;119224.81;5068386;28;20241;-61
2024/03/04 04:32:53;;;;;;;26.67;18.83;;;4.90;99.90;;;-141.84;100.00;119224.81;5069428;28;20219;-61
2024/03/04 04:35:21;;;;;;;25.07;17.77;;;4.80;99.90;;;-141.84;100.00;119224.81;5060108;28;20239;-61
2024/03/04 04:37:51;;;;;;;24.07;17.87;;;4.80;99.90;;;-141.84;100.00;119224.81;5069100;28;20319;-60
2024/03/04 04:40:20;;;;;;;25.17;18.07;;;4.90;99.90;;;-141.84;100.00;119224.81;5069867;28;20335;-60
2024/03/04 04:42:48;;;;;;;23.80;17.67;;;4.90;99.90;;;-141.84;100.00;119224.81;5068804;28;20311;-60
2024/03/04 04:45:17;;;;;;;27.13;18.63;;;4.90;99.90;;;-141.84;100.00;119224.81;5069811;28;20200;-60
2024/03/04 04:47:45;;;;;;;24.83;18.50;;;4.90;99.90;;;-141.84;100.00;119224.81;5069009;28;20307;-59
2024/03/04 04:50:14;;;;;;;24.73;18.33;;;4.90;99.90;;;-141.84;100.00;119224.81;5068643;28;20244;-61
2024/03/04 04:52:42;;;;;;;23.43;17.70;;;4.90;99.90;;;-141.84;100.00;118689.38;5069505;28;20227;-60
2024/03/04 04:55:12;;;;;;;24.07;18.20;;;5.00;99.90;;;-141.84;100.00;117356.25;5069298;28;20743;-60
2024/03/04 04:57:45;;;;;;;22.80;17.37;;;5.00;99.90;;;-141.84;100.00;117622.84;5069511;28;20231;-61
2024/03/04 05:00:17;;;;;;;24.13;17.53;;;4.90;99.90;;;-141.84;100.00;116823.13;5069873;28;20249;-61
2024/03/04 05:02:46;;;;;;;22.13;16.97;;;4.90;99.90;;;-141.84;100.00;115224.16;5061426;28;20229;-60
2024/03/04 05:05:14;;;;;;;21.40;16.57;;;5.00;99.90;;;-141.84;100.00;113892.16;5069301;28;20264;-61
2024/03/04 05:07:42;;;;;;;20.03;14.93;;;4.90;99.90;;;-141.84;100.00;110431.03;5068807;28;20228;-61
2024/03/04 05:10:12;;;;;;;22.67;16.13;;;5.00;99.90;;;-141.84;100.00;111229.50;5049207;28;20607;-61
2024/03/04 05:12:41;;;;;;;19.10;14.97;;;4.90;99.90;;;-141.84;100.00;112560.63;5049269;28;20285;-60
2024/03/04 05:15:10;;;;;;;21.37;16.20;;;4.90;99.90;;;-141.84;100.00;115490.59;5040346;28;20781;-60
2024/03/04 05:17:38;;;;;;;18.80;15.23;;;4.60;99.90;;;-141.84;100.00;118156.06;5048724;28;20238;-61
2024/03/04 05:20:09;;;;;;;22.97;17.13;;;4.60;99.90;;;-141.84;100.00;118689.38;5040254;28;20220;-61
2024/03/04 05:22:38;;;;;;;22.13;16.13;;;4.50;99.90;;;-141.84;100.00;118422.72;5038259;28;20238;-61
2024/03/04 05:25:08;;;;;;;21.17;16.13;;;4.60;99.90;;;-141.84;100.00;118689.38;5038089;28;20227;-61
2024/03/04 05:27:39;;;;;;;21.90;15.80;;;4.50;99.90;;;-141.84;100.00;119224.81;5039343;28;20205;-62
2024/03/04 05:30:10;;;;;;;21.07;15.17;;;4.50;99.90;;;-141.84;100.00;118689.38;5043061;28;20232;-62
2024/03/04 05:32:38;;;;;;;21.50;15.77;;;4.50;99.90;;;-141.84;100.00;116823.13;5048784;28;20258;-61
2024/03/04 05:35:08;;;;;;;19.60;14.47;;;4.60;99.90;;;-141.84;100.00;116823.13;5048532;28;20251;-60
2024/03/04 05:37:36;;;;;;;17.80;14.17;;;4.50;99.90;;;-141.84;100.00;116290.06;5049421;28;20225;-61
2024/03/04 05:40:09;;;;;;;17.87;13.73;;;4.50;99.90;;;-141.84;100.00;108834.56;5049205;28;20233;-61
2024/03/04 05:42:41;;;;;;;14.87;12.63;;;4.60;99.90;;;-141.84;100.00;107770.63;5051814;28;20228;-62
2024/03/04 05:45:10;;;;;;;14.93;12.40;;;4.50;99.90;;;-141.84;100.00;109366.66;5054377;28;20228;-61
2024/03/04 05:47:39;;;;;;;18.03;13.10;;;4.50;99.90;;;-141.84;100.00;109632.72;5052082;28;20256;-62
2024/03/04 05:50:09;;;;;;;17.57;13.63;;;4.40;99.90;;;-141.84;100.00;108834.56;5041636;28;20229;-62
2024/03/04 05:52:37;;;;;;;14.70;11.93;;;4.30;99.90;;;-141.84;100.00;110963.31;5041504;28;20365;-61
2024/03/04 05:55:06;;;;;;;15.63;12.57;;;4.30;99.90;;;-141.84;100.00;112560.63;5049766;28;20224;-62
2024/03/04 05:57:35;;;;;;;16.20;12.47;;;4.20;99.90;;;-141.84;100.00;103251.88;5052099;28;20748;-61
2024/03/04 06:00:12;;;;;;;15.47;12.27;;;4.30;99.90;;;-141.84;100.00;98207.50;5053447;28;20196;-61
2024/03/04 06:02:41;;;;;;;15.50;10.67;;;4.20;99.90;;;-141.84;100.00;99534.38;5042609;28;20599;-61
2024/03/04 06:05:13;;;;;;;14.73;11.53;;;4.20;99.90;;;-141.84;100.00;99534.38;5041287;28;20264;-62
2024/03/04 06:07:43;;;;;;;14.20;11.57;;;4.20;99.90;;;-141.84;100.00;102720.59;5047724;28;20600;-61
2024/03/04 06:10:13;;;;;;;16.47;12.90;;;4.10;99.90;;;-141.84;100.00;105111.94;5041706;28;20233;-61
2024/03/04 06:12:42;;;;;;;15.67;12.20;;;4.20;99.90;;;-141.84;100.00;99268.97;5049883;28;20236;-62
2024/03/04 06:15:16;;;;;;;17.13;13.57;;;;;;;-141.84;100.00;100330.69;5046326;28;20219;-62
2024/03/04 06:17:47;;;;;;;17.27;13.57;;;;;;;-141.84;100.00;102986.25;5052718;28;20635;-62
2024/03/04 06:20:19;;;;;;;16.23;13.67;;;;;;;-141.84;100.00;102986.25;5054034;28;20259;-62
2024/03/04 06:22:48;;;;;;;19.40;14.57;;;;;;;-141.84;100.00;101658.25;5055063;28;20308;-62
2024/03/04 06:25:17;;;;;;;22.97;15.83;;;4.40;99.90;;;-141.84;99.93;97676.88;5054714;28;20235;-62
2024/03/04 06:27:46;;;;;;;18.70;14.27;;;;;;;-141.84;97.71;89990.66;5049123;28;20229;-63
2024/03/04 06:30:16;;;;;;;18.13;13.97;;;4.60;99.90;;;-141.84;96.04;85491.75;5040146;28;20653;-61
2024/03/04 06:32:47;;;;;;;18.67;15.00;;;;;;;-141.84;97.40;88666.94;5053670;28;20228;-61
2024/03/04 06:35:16;;;;;;;19.67;14.13;;;4.60;99.90;;;-141.84;95.63;84169.50;5047895;28;21144;-61
2024/03/04 06:37:44;;;;;;;17.00;11.90;;;4.80;99.90;;;-141.84;94.56;80469.50;5047583;28;20689;-62
2024/03/04 06:40:13;;;;;;;14.40;12.53;;;4.80;99.90;;;-141.84;93.76;77300.78;5050971;28;20228;-60
2024/03/04 06:42:42;;;;;;;15.60;10.80;;;4.80;99.90;;;-141.84;93.21;75189.69;5041185;28;20260;-62
2024/03/04 06:45:12;;;;;;;14.00;10.27;;;4.80;99.90;;;-141.84;93.76;76772.88;5042374;28;20630;-61
2024/03/04 06:47:42;;;;;;;14.10;11.43;;;4.80;99.90;;;-141.84;95.02;81262.06;5051271;28;20256;-61
2024/03/04 06:50:11;;;;;;;16.80;12.40;;;;;;;-141.84;94.29;80469.50;5051044;28;20712;-61
2024/03/04 06:52:39;;;;;;;18.13;13.50;;;4.90;99.90;;;-141.84;94.37;78884.81;5035241;28;20230;-62
2024/03/04 06:55:08;;;;;;;26.27;15.00;;;5.00;99.90;;;-141.84;90.94;69916.81;5041802;28;20620;-62
2024/03/04 06:57:36;;;;;;;20.60;15.57;;;5.00;99.90;;;-141.84;88.33;53615.19;5047687;28;20232;-61
2024/03/04 07:00:11;;;;;;;23.93;15.47;;;5.00;99.90;;;-141.84;88.36;52828.09;5052305;28;20465;-61
2024/03/04 07:02:41;;;;;;;18.33;14.10;;;5.10;99.90;;;-141.84;87.29;47322.81;5046448;28;20269;-60
2024/03/04 07:05:10;;;;;;;19.87;14.27;;;5.10;99.90;;;-141.84;90.22;61494.72;5052923;28;20252;-61
2024/03/04 07:07:40;;;;;;;24.87;15.27;;;5.10;99.90;;;-141.84;91.33;68599.69;5052690;28;20605;-61
2024/03/04 07:10:09;;;;;;;17.40;14.43;;;5.20;99.90;;;-141.84;91.58;70180.31;5072227;28;20644;-61
2024/03/04 07:12:37;;;;;;;18.50;14.43;;;5.20;99.90;;;-141.84;90.80;65966.75;5071402;28;20573;-61
2024/03/04 07:15:06;;;;;;;34.90;15.63;;;5.30;99.90;;;-141.84;85.82;43656.88;5071797;28;20211;-61
2024/03/04 07:17:38;;;;;;;17.80;13.47;;;5.30;99.90;;;-141.84;84.58;28377.44;5069979;28;20307;-61
2024/03/04 07:20:10;;;;;;;18.43;14.50;;;5.30;99.90;;;-141.84;86.20;38054.09;5070287;28;20714;-61
2024/03/04 07:22:39;;;;;;;31.00;15.93;;;5.30;99.90;;;-141.84;86.62;42348.44;5052882;28;20224;-61
2024/03/04 07:25:09;;;;;;;23.37;15.90;;;5.40;99.90;;;-141.84;85.93;38356.31;5070382;28;20219;-61
2024/03/04 07:27:37;;;;;;;20.50;15.73;;;5.30;99.90;;;-141.84;86.69;42871.75;5070135;28;20711;-62
2024/03/04 07:30:09;;;;;;;19.70;14.90;;;5.30;99.90;;;-141.84;86.33;41302.00;5070722;28;20229;-61
2024/03/04 07:32:37;;;;;;;18.03;14.57;;;5.30;99.90;;;-141.84;87.75;49681.28;5070084;28;20378;-63
2024/03/04 07:35:08;;;;;;;19.17;15.20;;;5.40;99.90;;;-141.84;86.29;42871.75;5069884;28;20225;-62
2024/03/04 07:37:36;;;;;;;23.73;15.70;;;5.50;99.90;;;-141.84;84.92;31280.97;5070313;28;20228;-61
2024/03/04 07:40:06;;;;;;;16.33;14.43;;;5.60;99.90;;;-141.84;83.54;26273.97;5070149;28;20299;-62
2024/03/04 07:42:34;;;;;;;18.73;14.23;;;5.70;99.90;;;-141.84;82.57;23463.63;5061677;28;20192;-61
2024/03/04 07:45:03;;;;;;;20.60;15.00;;;5.80;99.90;;;-141.84;82.05;21196.09;5069611;28;20295;-62
2024/03/04 07:47:31;;;;;;;22.43;15.17;;;5.80;99.90;;;-141.84;80.54;19748.81;5067413;28;20232;-62
2024/03/04 07:50:00;;;;;;;18.47;14.73;;;5.80;99.90;;;-141.84;80.61;19606.53;5069352;28;20295;-61
2024/03/04 07:52:30;;;;;;;18.57;14.53;;;5.90;99.90;;;-141.84;81.02;20332.13;5069609;28;20228;-61
2024/03/04 07:54:58;;;;;;;16.73;14.27;;;6.00;99.90;;;-141.84;81.43;20921.63;5069283;28;20303;-61
2024/03/04 07:57:26;;;;;;;17.17;13.30;;;6.00;99.90;;;-141.84;81.06;20254.88;5069650;28;20193;-61
2024/03/04 07:59:55;;;;;;;14.23;12.40;;;6.00;99.90;;;-141.84;76.69;18397.53;5069755;28;20696;-62
2024/03/04 08:02:23;;;;;;;16.07;13.30;;;6.10;99.90;;;-141.84;77.48;18484.91;5070190;28;20623;-62
2024/03/04 08:04:51;;;;;;;15.93;13.07;;;6.10;99.90;;;-141.84;77.49;18493.03;5069748;28;20252;-62
2024/03/04 08:07:20;;;;;;;36.83;13.17;;;6.00;99.90;;;-141.84;77.61;18580.41;5073686;28;20270;-61
2024/03/04 08:09:50;;;;;;;21.93;11.07;;;6.00;99.90;;;-141.84;78.46;18716.53;5073148;28;20228;-61
2024/03/04 08:12:22;;;;;;;14.87;11.17;;;5.90;99.90;;;-141.84;78.97;18848.59;5017937;28;20404;-62
2024/03/04 08:14:53;;;;;;;45.60;13.53;;;6.00;99.90;;;-141.84;78.77;18899.38;5071403;28;20249;-62
2024/03/04 08:17:26;;;;;;;12.77;10.53;;;5.90;99.90;;;-141.84;79.12;18895.31;5073376;28;20327;-61
2024/03/04 08:19:59;;;;;;;16.87;12.10;;;6.00;99.90;;;-141.84;80.32;19777.25;5072540;28;20216;-62
2024/03/04 08:22:27;;;;;;;38.37;12.13;;;6.00;99.90;;;-141.84;79.07;19153.38;5073010;28;20232;-62
2024/03/04 08:24:59;;;;;;;13.70;11.53;;;6.00;99.90;;;-141.84;77.77;18647.44;5073882;28;20216;-61
2024/03/04 08:27:27;;;;;;;12.03;10.50;;;6.00;99.90;;;-141.84;79.69;19397.22;5073431;28;20201;-62
2024/03/04 08:29:57;;;;;;;12.47;11.17;;;6.20;99.90;;;-141.84;79.54;19366.75;5074184;28;20188;-61
2024/03/04 08:32:25;;;;;;;12.63;10.60;;;6.40;99.90;;;-141.84;80.10;19706.13;5073212;28;20260;-61
2024/03/04 08:34:57;;;;;;;15.07;11.33;;;6.50;99.90;;;-141.84;78.10;18742.94;5073100;28;20232;-62
2024/03/04 08:37:26;;;;;;;12.87;11.47;;;6.50;99.90;;;-141.84;76.54;18519.44;5072908;28;20229;-62
2024/03/04 08:40:03;;;;;;;12.93;11.00;;;6.70;99.90;;;-141.84;75.47;18415.81;5073294;28;20220;-62
2024/03/04 08:42:33;;;;;;;13.70;11.30;;;6.70;99.90;;;-141.84;75.55;18440.22;5065055;28;20191;-62
2024/03/04 08:45:05;;;;;;;12.70;11.03;;;6.80;99.90;;;-141.84;77.25;18556.00;5073902;28;20273;-62
2024/03/04 08:47:37;;;;;;;13.93;11.10;;;6.80;99.90;;;-141.84;75.01;18369.09;5072984;28;20228;-62
2024/03/04 08:50:07;;;;;;;13.50;11.53;;;6.90;99.90;;;-141.84;76.16;18525.53;5072317;28;20221;-61
2024/03/04 08:52:38;;;;;;;14.13;11.60;;;6.80;99.90;;;-141.84;78.13;18870.94;5073766;28;20316;-61
2024/03/04 08:55:09;;;;;;;15.07;12.63;;;6.90;99.90;;;-141.84;76.21;18566.16;5073227;28;20229;-61
2024/03/04 08:57:37;;;;;;;13.17;11.17;;;7.00;99.90;;;-141.84;76.81;18586.50;5073513;28;20228;-61
2024/03/04 09:00:08;;;;;;;22.37;13.03;;;7.00;99.90;;;-141.84;75.06;18464.59;5074291;28;20193;-62
2024/03/04 09:02:37;;;;;;;19.90;12.43;;;7.00;99.90;;;-141.84;76.57;18590.56;5073442;28;20254;-61
2024/03/04 09:05:08;;;;;;;14.50;12.10;;;7.00;99.90;;;-141.84;75.36;18456.47;5072986;28;20248;-62
2024/03/04 09:07:37;;;;;;;14.63;12.30;;;7.10;99.90;;;-141.84;76.91;18621.03;5073217;28;20229;-62
2024/03/04 09:10:08;;;;;;;15.60;12.77;;;7.00;99.90;;;-141.84;75.61;18484.91;5072962;28;20243;-61
2024/03/04 09:12:38;;;;;;;19.60;12.93;;;7.00;99.90;;;-141.84;76.41;18645.41;5073515;28;20260;-62
2024/03/04 09:15:12;;;;;;;13.63;12.10;;;7.10;99.90;;;-141.84;76.45;18641.34;5065031;28;20593;-62
2024/03/04 09:17:44;;;;;;;17.87;13.20;;;7.20;99.90;;;-141.84;75.72;18570.22;5075317;28;20595;-62
2024/03/04 09:20:17;;;;;;;16.97;13.20;;;7.30;99.90;;;-141.84;76.37;18580.41;5076497;28;20565;-62
2024/03/04 09:22:45;;;;;;;16.33;13.80;;;7.40;99.90;;;-141.84;77.49;18844.53;5076743;28;20355;-61
2024/03/04 09:25:18;;;;;;;18.63;14.03;;;7.40;99.90;;;-141.84;76.27;18588.53;5077079;28;20295;-61
2024/03/04 09:27:46;;;;;;;18.13;13.73;;;7.40;99.90;;;-141.84;76.18;18667.75;5068308;28;20686;-61
2024/03/04 09:30:17;;;;;;;16.03;14.33;;;7.50;99.90;;;-141.84;74.08;18425.97;5077657;28;20225;-61
2024/03/04 09:32:45;;;;;;;14.70;13.07;;;7.60;99.90;;;-141.84;75.54;18553.97;5076696;28;20252;-61
2024/03/04 09:35:17;;;;;;;16.27;13.03;;;7.60;99.90;;;-141.84;73.96;18440.22;5077285;28;20224;-60
2024/03/04 09:37:45;;;;;;;17.70;13.20;;;7.70;99.90;;;-141.84;73.80;18450.38;5076528;28;20228;-61
2024/03/04 09:40:17;;;;;;;17.50;13.20;;;7.70;99.90;;;-141.84;74.38;18488.97;5076585;28;20234;-63
2024/03/04 09:42:48;;;;;;;16.47;12.47;;;7.70;99.90;;;-141.84;75.40;18525.53;5077154;28;20243;-61
2024/03/04 09:45:19;;;;;;;15.67;12.80;;;7.80;99.90;;;-141.84;75.91;18619.00;5078002;28;20185;-61
2024/03/04 09:47:57;;;;;;;14.97;12.73;;;7.70;99.90;;;-141.84;76.78;18753.09;5069686;28;20634;-62
2024/03/04 09:50:26;;;;;;;15.40;13.37;;;7.60;99.90;;;-141.84;75.66;18568.19;5076978;28;20331;-61
2024/03/04 09:52:59;;;;;;;13.30;11.90;;;7.60;99.90;;;-141.84;77.12;18785.59;5076368;28;20347;-65
2024/03/04 09:55:29;;;;;;;15.90;13.00;;;7.60;99.90;;;-141.84;75.96;18643.38;5076388;28;20271;-62
2024/03/04 09:57:58;;;;;;;14.07;12.37;;;7.60;99.90;;;-141.84;77.37;18940.03;5076893;28;20282;-61
2024/03/04 10:00:28;;;;;;;15.17;12.60;;;7.70;99.90;;;-141.84;77.86;19063.97;5076432;28;20280;-61
2024/03/04 10:02:57;;;;;;;15.27;12.40;;;7.80;99.90;;;-141.84;75.88;18663.69;5077028;28;20193;-62
2024/03/04 10:05:26;;;;;;;15.93;12.47;;;7.90;99.90;;;-141.84;73.15;18436.16;5075414;28;20797;-62